createdAt,value
2023-01-11T00:00:51.137Z,10.70
2023-01-11T00:03:19.333Z,8.90
2023-01-11T00:05:55.179Z,7.90
2023-01-11T00:08:27.843Z,9.40
2023-01-11T00:11:04.554Z,9.40
2023-01-11T00:13:37.282Z,9.40
2023-01-11T00:16:37.806Z,9.60
2023-01-11T00:19:06.188Z,9.00
2023-01-11T00:21:41.815Z,8.80
2023-01-11T00:24:12.196Z,9.20
2023-01-11T00:26:42.597Z,9.90
2023-01-11T00:29:10.886Z,8.30
2023-01-11T00:31:39.000Z,7.30
2023-01-11T00:34:07.267Z,8.90
2023-01-11T00:36:43.487Z,8.70
2023-01-11T00:39:37.329Z,8.00
2023-01-11T00:42:38.180Z,8.70
2023-01-11T00:48:00.534Z,7.40
2023-01-11T00:50:33.257Z,7.70
2023-01-11T00:53:12.130Z,7.30
2023-01-11T00:55:43.025Z,8.10
2023-01-11T00:58:13.796Z,8.80
2023-01-11T01:00:41.947Z,7.50
2023-01-11T01:03:10.197Z,8.60
2023-01-11T01:05:39.051Z,7.90
2023-01-11T01:08:44.432Z,7.10
2023-01-11T01:11:21.113Z,7.90
2023-01-11T01:17:15.585Z,7.60
2023-01-11T01:19:43.863Z,8.50
2023-01-11T01:22:11.995Z,7.00
2023-01-11T01:24:48.270Z,7.30
2023-01-11T01:27:17.969Z,7.80
2023-01-11T01:29:46.837Z,7.00
2023-01-11T01:32:17.811Z,8.40
2023-01-11T01:34:46.056Z,7.70
2023-01-11T01:37:17.962Z,8.20
2023-01-11T01:39:56.420Z,8.20
2023-01-11T01:42:25.348Z,6.50
2023-01-11T01:44:57.066Z,7.20
2023-01-11T01:47:49.344Z,8.00
2023-01-11T01:50:25.632Z,6.80
2023-01-11T01:52:59.578Z,7.50
2023-01-11T01:55:33.952Z,7.30
2023-01-11T01:58:06.417Z,7.10
2023-01-11T02:00:47.595Z,6.90
2023-01-11T02:03:27.132Z,6.50
2023-01-11T02:06:22.403Z,6.60
2023-01-11T02:09:11.939Z,7.10
2023-01-11T02:11:45.335Z,6.50
2023-01-11T02:14:19.179Z,6.50
2023-01-11T02:16:47.511Z,6.60
2023-01-11T02:19:37.344Z,7.00
2023-01-11T02:23:12.223Z,6.50
2023-01-11T02:26:04.890Z,6.70
2023-01-11T02:28:54.717Z,6.10
2023-01-11T02:31:41.045Z,6.70
2023-01-11T02:34:31.821Z,6.00
2023-01-11T02:37:33.653Z,6.10
2023-01-11T02:40:28.535Z,6.00
2023-01-11T02:43:37.535Z,6.80
2023-01-11T02:46:26.607Z,6.00
2023-01-11T02:50:06.457Z,5.70
2023-01-11T02:52:58.986Z,4.30
2023-01-11T02:55:55.806Z,4.80
2023-01-11T02:58:34.915Z,5.80
2023-01-11T03:01:13.345Z,5.50
2023-01-11T03:03:47.568Z,6.00
2023-01-11T03:07:03.477Z,5.10
2023-01-11T03:14:02.079Z,5.70
2023-01-11T03:17:20.378Z,5.10
2023-01-11T03:19:54.474Z,5.40
2023-01-11T03:22:57.906Z,5.10
2023-01-11T03:26:02.587Z,4.80
2023-01-11T03:28:33.631Z,5.00
2023-01-11T03:31:25.343Z,5.60
2023-01-11T03:34:28.386Z,5.60
2023-01-11T03:37:36.328Z,6.00
2023-01-11T03:40:19.858Z,5.50
2023-01-11T03:43:13.936Z,6.80
2023-01-11T03:46:01.681Z,5.70
2023-01-11T03:48:36.628Z,6.00
2023-01-11T03:51:14.841Z,5.00
2023-01-11T03:53:55.918Z,6.40
2023-01-11T03:57:17.964Z,5.50
2023-01-11T03:59:46.360Z,5.30
2023-01-11T04:02:26.845Z,5.40
2023-01-11T04:04:57.305Z,5.70
2023-01-11T04:07:56.373Z,5.60
2023-01-11T04:10:26.500Z,4.80
2023-01-11T04:12:57.346Z,6.10
2023-01-11T04:15:32.779Z,6.40
2023-01-11T04:18:05.418Z,5.70
2023-01-11T04:20:44.366Z,6.00
2023-01-11T04:26:26.676Z,5.40
2023-01-11T04:28:58.091Z,5.40
2023-01-11T04:31:30.998Z,5.60
2023-01-11T04:34:01.176Z,6.00
2023-01-11T04:36:48.072Z,6.00
2023-01-11T04:39:48.349Z,5.80
2023-01-11T04:42:21.225Z,5.50
2023-01-11T04:44:51.106Z,6.00
2023-01-11T04:47:28.273Z,6.60
2023-01-11T04:50:23.187Z,6.60
2023-01-11T04:53:04.238Z,5.00
2023-01-11T04:55:34.062Z,6.10
2023-01-11T04:58:02.241Z,5.80
2023-01-11T05:00:30.383Z,7.50
2023-01-11T05:03:34.721Z,7.30
2023-01-11T05:06:03.606Z,7.10
2023-01-11T05:09:05.091Z,6.10
2023-01-11T05:11:49.421Z,6.10
2023-01-11T05:14:21.505Z,6.90
2023-01-11T05:16:56.830Z,6.70
2023-01-11T05:19:46.043Z,5.10
2023-01-11T05:22:14.233Z,6.00
2023-01-11T05:24:42.377Z,6.30
2023-01-11T05:27:10.472Z,6.60
2023-01-11T05:29:38.801Z,6.60
2023-01-11T05:32:07.089Z,6.40
2023-01-11T05:34:35.713Z,7.10
2023-01-11T05:37:26.454Z,6.70
2023-01-11T05:39:54.738Z,7.40
2023-01-11T05:42:25.052Z,6.50
2023-01-11T05:45:11.762Z,6.50
2023-01-11T05:47:44.155Z,6.60
2023-01-11T05:50:12.232Z,6.70
2023-01-11T05:52:42.633Z,7.40
2023-01-11T05:55:10.801Z,7.60
2023-01-11T05:58:07.389Z,7.30
2023-01-11T06:00:35.560Z,7.80
2023-01-11T06:03:03.597Z,8.70
2023-01-11T06:05:34.973Z,8.50
2023-01-11T06:08:03.031Z,7.50
2023-01-11T06:10:31.090Z,7.60
2023-01-11T06:13:26.429Z,7.70
2023-01-11T06:16:07.133Z,8.20
2023-01-11T06:18:41.057Z,9.70
2023-01-11T06:21:10.425Z,8.80
2023-01-11T06:26:18.164Z,8.20
2023-01-11T06:28:46.602Z,8.90
2023-01-11T06:31:17.328Z,8.30
2023-01-11T06:33:47.251Z,9.30
2023-01-11T06:36:16.233Z,9.40
2023-01-11T06:38:45.046Z,8.50
2023-01-11T06:41:16.384Z,9.10
2023-01-11T06:43:45.481Z,8.40
2023-01-11T06:46:16.367Z,8.80
2023-01-11T06:48:45.238Z,9.70
2023-01-11T06:51:15.179Z,8.10
2023-01-11T06:53:54.956Z,9.10
2023-01-11T06:56:23.735Z,10.90
2023-01-11T06:58:52.860Z,9.70
2023-01-11T07:01:21.356Z,10.30
2023-01-11T07:03:49.520Z,9.00
2023-01-11T07:06:17.625Z,10.00
2023-01-11T07:08:45.698Z,10.00
2023-01-11T07:11:13.662Z,8.80
2023-01-11T07:13:41.784Z,8.60
2023-01-11T07:16:09.845Z,10.40
2023-01-11T07:18:38.251Z,9.60
2023-01-11T07:21:06.454Z,9.00
2023-01-11T07:23:34.612Z,8.90
2023-01-11T07:26:02.909Z,7.80
2023-01-11T07:28:31.059Z,8.30
2023-01-11T07:31:00.074Z,6.90
2023-01-11T07:33:28.564Z,8.30
2023-01-11T07:36:00.679Z,9.10
2023-01-11T07:38:41.271Z,7.60
2023-01-11T07:41:33.921Z,9.10
2023-01-11T07:44:02.105Z,9.50
2023-01-11T07:46:30.296Z,9.00
2023-01-11T07:48:58.503Z,8.30
2023-01-11T07:51:28.148Z,8.10
2023-01-11T07:53:56.391Z,9.00
2023-01-11T07:56:27.507Z,8.60
2023-01-11T07:59:03.858Z,9.40
2023-01-11T08:01:32.121Z,8.50
2023-01-11T08:04:00.187Z,9.00
2023-01-11T08:06:28.357Z,9.90
2023-01-11T08:08:56.361Z,9.40
2023-01-11T08:11:42.884Z,10.00
2023-01-11T08:14:36.188Z,7.80
2023-01-11T08:17:04.403Z,8.00
2023-01-11T08:19:40.575Z,7.50
2023-01-11T08:22:20.938Z,7.50
2023-01-11T08:25:02.873Z,8.10
2023-01-11T08:27:31.112Z,8.30
2023-01-11T08:29:59.282Z,7.90
2023-01-11T08:32:30.447Z,7.30
2023-01-11T08:34:58.474Z,7.90
2023-01-11T08:37:51.427Z,7.70
2023-01-11T08:40:31.565Z,7.20
2023-01-11T08:43:06.638Z,7.40
2023-01-11T08:45:34.692Z,7.70
2023-01-11T08:48:02.664Z,7.60
2023-01-11T08:50:30.619Z,8.30
2023-01-11T08:52:58.678Z,9.90
2023-01-11T08:55:26.623Z,9.10
2023-01-11T08:57:57.026Z,8.10
2023-01-11T09:00:27.158Z,8.30
2023-01-11T09:02:55.299Z,8.20
2023-01-11T09:05:44.139Z,7.90
2023-01-11T09:08:12.135Z,10.00
2023-01-11T09:10:53.698Z,8.70
2023-01-11T09:13:36.591Z,8.50
2023-01-11T09:16:37.691Z,8.70
2023-01-11T09:19:05.707Z,8.50
2023-01-11T09:21:33.892Z,7.60
2023-01-11T09:24:03.203Z,7.70
2023-01-11T09:26:31.196Z,7.70
2023-01-11T09:29:00.732Z,8.70
2023-01-11T09:31:28.871Z,8.20
2023-01-11T09:33:56.917Z,9.10
2023-01-11T09:36:27.852Z,8.30
2023-01-11T09:38:57.988Z,8.70
2023-01-11T09:42:06.125Z,9.40
2023-01-11T09:44:37.040Z,9.10
2023-01-11T09:47:23.543Z,10.20
2023-01-11T09:49:57.250Z,11.40
2023-01-11T09:52:39.835Z,11.00
2023-01-11T09:55:20.169Z,11.70
2023-01-11T09:58:22.969Z,10.60
2023-01-11T10:00:51.113Z,9.80
2023-01-11T10:04:04.194Z,9.30
2023-01-11T10:06:42.445Z,9.10
2023-01-11T10:18:42.731Z,10.20
2023-01-11T10:19:25.758Z,10.80
2023-01-11T10:22:05.499Z,10.80
2023-01-11T10:24:45.515Z,11.20
2023-01-11T10:27:59.152Z,12.10
2023-01-11T10:30:49.782Z,11.60
2023-01-11T10:34:21.847Z,12.20
2023-01-11T10:37:13.167Z,14.70
2023-01-11T10:40:06.542Z,14.90
2023-01-11T10:42:47.853Z,13.80
2023-01-11T10:45:21.224Z,12.90
2023-01-11T10:48:02.879Z,13.70
2023-01-11T10:50:40.326Z,13.30
2023-01-11T10:53:32.976Z,13.50
2023-01-11T10:56:24.481Z,12.50
2023-01-11T10:59:31.896Z,13.80
2023-01-11T11:02:32.525Z,12.70
2023-01-11T11:05:38.407Z,14.50
2023-01-11T11:08:44.416Z,14.90
2023-01-11T11:11:35.465Z,13.00
2023-01-11T11:14:19.713Z,11.40
2023-01-11T11:16:50.902Z,9.60
2023-01-11T11:19:26.932Z,9.40
2023-01-11T11:21:55.806Z,9.00
2023-01-11T11:24:43.617Z,9.10
2023-01-11T11:27:35.125Z,9.00
2023-01-11T11:30:04.540Z,10.80
2023-01-11T11:32:38.624Z,11.60
2023-01-11T11:35:27.757Z,11.20
2023-01-11T11:37:55.993Z,12.40
2023-01-11T11:41:19.560Z,14.90
2023-01-11T11:43:47.969Z,12.40
2023-01-11T11:46:19.412Z,10.70
2023-01-11T11:49:10.835Z,11.30
2023-01-11T11:51:41.431Z,10.20
2023-01-11T11:56:48.172Z,8.90
2023-01-11T11:59:21.338Z,9.10
2023-01-11T12:02:18.012Z,8.70
2023-01-11T12:04:51.023Z,8.70
2023-01-11T12:07:55.110Z,8.90
2023-01-11T12:10:36.077Z,8.70
2023-01-11T12:13:28.357Z,8.40
2023-01-11T12:16:07.074Z,8.90
2023-01-11T12:18:42.590Z,10.10
2023-01-11T12:21:30.639Z,11.30
2023-01-11T12:24:10.942Z,10.60
2023-01-11T12:27:20.651Z,10.80
2023-01-11T12:30:30.186Z,10.60
2023-01-11T12:33:28.652Z,9.90
2023-01-11T12:36:12.859Z,11.00
2023-01-11T12:39:06.195Z,11.90
2023-01-11T12:41:48.035Z,12.40
2023-01-11T12:44:45.427Z,11.80
2023-01-11T12:47:32.811Z,12.50
2023-01-11T12:50:29.720Z,12.40
2023-01-11T12:53:24.611Z,13.00
2023-01-11T12:56:17.238Z,13.30
2023-01-11T12:58:50.763Z,12.90
2023-01-11T13:01:37.923Z,13.40
2023-01-11T13:04:15.834Z,12.50
2023-01-11T13:07:09.369Z,13.90
2023-01-11T13:09:55.640Z,14.10
2023-01-11T13:12:35.170Z,13.20
2023-01-11T13:15:29.388Z,12.80
2023-01-11T13:18:03.567Z,12.70
2023-01-11T13:20:59.379Z,14.00
2023-01-11T13:23:44.413Z,13.20
2023-01-11T13:26:23.940Z,14.20
2023-01-11T13:29:01.636Z,14.60
2023-01-11T13:31:34.985Z,15.10
2023-01-11T13:34:39.266Z,15.10
2023-01-11T13:37:28.004Z,15.30
2023-01-11T13:40:37.075Z,15.50
2023-01-11T13:43:13.601Z,15.40
2023-01-11T13:45:52.757Z,13.70
2023-01-11T13:48:26.916Z,15.30
2023-01-11T13:51:04.666Z,14.40
2023-01-11T13:53:56.759Z,15.70
2023-01-11T13:56:31.197Z,17.30
2023-01-11T13:59:07.873Z,17.00
2023-01-11T14:01:48.089Z,17.50
2023-01-11T14:04:25.791Z,19.70
2023-01-11T14:07:22.731Z,18.70
2023-01-11T14:10:15.079Z,18.50
2023-01-11T14:13:03.863Z,17.00
2023-01-11T14:15:53.500Z,21.70
2023-01-11T14:18:38.397Z,18.30
2023-01-11T14:21:15.775Z,18.30
2023-01-11T14:23:53.719Z,15.80
2023-01-11T14:27:03.340Z,16.20
2023-01-11T14:30:10.131Z,15.60
2023-01-11T14:33:23.267Z,15.80
2023-01-11T14:36:31.814Z,16.30
2023-01-11T14:39:21.624Z,17.50
2023-01-11T14:42:22.077Z,20.00
2023-01-11T14:45:18.198Z,19.70
2023-01-11T14:48:14.653Z,19.80
2023-01-11T14:51:05.830Z,21.60
2023-01-11T14:53:41.917Z,21.50
2023-01-11T14:56:37.983Z,21.60
2023-01-11T14:59:21.047Z,22.00
2023-01-11T15:02:24.511Z,19.70
2023-01-11T15:04:52.716Z,21.20
2023-01-11T15:07:33.471Z,23.60
2023-01-11T15:10:04.631Z,21.60
2023-01-11T15:12:40.480Z,25.10
2023-01-11T15:15:11.437Z,22.70
2023-01-11T15:17:58.939Z,22.10
2023-01-11T15:20:27.110Z,23.80
2023-01-11T15:22:58.174Z,23.60
2023-01-11T15:25:29.063Z,26.30
2023-01-11T15:27:57.194Z,26.00
2023-01-11T15:30:31.234Z,30.00
2023-01-11T15:33:17.381Z,30.40
2023-01-11T15:35:57.489Z,34.40
2023-01-11T15:38:49.352Z,34.60
2023-01-11T15:41:56.510Z,29.30
2023-01-11T15:44:48.884Z,24.40
2023-01-11T15:47:35.300Z,22.40
2023-01-11T15:50:27.636Z,21.40
2023-01-11T15:53:04.850Z,28.10
2023-01-11T15:56:01.840Z,31.00
2023-01-11T15:59:09.476Z,37.10
2023-01-11T16:02:18.702Z,37.90
2023-01-11T16:04:56.788Z,38.00
2023-01-11T16:07:43.157Z,38.10
2023-01-11T16:10:35.491Z,37.30
2023-01-11T16:13:24.124Z,37.90
2023-01-11T16:15:58.526Z,34.50
2023-01-11T16:18:34.272Z,36.40
2023-01-11T16:21:14.155Z,43.30
2023-01-11T16:23:42.303Z,38.30
2023-01-11T16:26:16.213Z,40.40
2023-01-11T16:28:50.969Z,49.20
2023-01-11T16:31:20.026Z,44.60
2023-01-11T16:33:49.940Z,48.90
2023-01-11T16:36:24.422Z,48.90
2023-01-11T16:39:20.919Z,45.30
2023-01-11T16:41:57.870Z,48.90
2023-01-11T16:44:45.593Z,58.40
2023-01-11T16:47:15.030Z,59.00
2023-01-11T16:49:48.971Z,57.70
2023-01-11T16:52:37.878Z,56.50
2023-01-11T16:55:17.319Z,59.60
2023-01-11T16:57:51.560Z,54.30
2023-01-11T17:00:22.255Z,53.60
2023-01-11T17:03:00.493Z,53.80
2023-01-11T17:05:29.316Z,49.30
2023-01-11T17:07:57.253Z,47.50
2023-01-11T17:10:30.186Z,51.30
2023-01-11T17:13:07.262Z,45.20
2023-01-11T17:15:57.695Z,42.90
2023-01-11T17:18:25.709Z,43.60
2023-01-11T17:20:54.277Z,41.00
2023-01-11T17:23:22.275Z,39.20
2023-01-11T17:25:56.698Z,37.70
2023-01-11T17:28:26.311Z,31.90
2023-01-11T17:30:54.522Z,35.40
2023-01-11T17:33:29.440Z,36.00
2023-01-11T17:35:58.169Z,33.50
2023-01-11T17:38:28.140Z,35.90
2023-01-11T17:40:57.765Z,32.60
2023-01-11T17:43:47.151Z,35.40
2023-01-11T17:46:23.317Z,34.40
2023-01-11T17:48:56.949Z,31.90
2023-01-11T17:51:27.780Z,34.00
2023-01-11T17:53:55.837Z,33.00
2023-01-11T17:56:58.788Z,31.00
2023-01-11T17:59:30.054Z,36.90
2023-01-11T18:02:02.999Z,45.10
2023-01-11T18:04:31.971Z,41.90
2023-01-11T18:07:07.908Z,41.00
2023-01-11T18:09:48.591Z,48.20
2023-01-11T18:12:25.877Z,47.60
2023-01-11T18:15:00.200Z,54.00
2023-01-11T18:17:42.285Z,52.60
2023-01-11T18:20:17.872Z,45.60
2023-01-11T18:23:09.945Z,47.20
2023-01-11T18:25:38.577Z,43.30
2023-01-11T18:28:19.268Z,44.80
2023-01-11T18:33:25.507Z,45.30
2023-01-11T18:36:03.236Z,38.70
2023-01-11T18:38:34.289Z,38.90
2023-01-11T18:41:26.980Z,41.70
2023-01-11T18:43:55.687Z,50.70
2023-01-11T18:46:23.799Z,51.30
2023-01-11T18:48:52.144Z,52.10
2023-01-11T18:51:29.322Z,47.50
2023-01-11T18:53:57.390Z,45.30
2023-01-11T18:56:27.706Z,47.30
2023-01-11T18:58:55.764Z,43.90
2023-01-11T19:01:24.028Z,49.10
2023-01-11T19:03:52.172Z,45.00
2023-01-11T19:06:22.735Z,43.10
2023-01-11T19:08:50.906Z,41.40
2023-01-11T19:11:19.005Z,36.50
2023-01-11T19:13:47.272Z,32.30
2023-01-11T19:16:21.583Z,29.60
2023-01-11T19:18:49.882Z,27.70
2023-01-11T19:21:25.380Z,28.20
2023-01-11T19:23:53.262Z,30.70
2023-01-11T19:26:22.296Z,29.60
2023-01-11T19:28:50.282Z,33.60
2023-01-11T19:31:18.269Z,32.00
2023-01-11T19:33:57.421Z,32.00
2023-01-11T19:36:29.583Z,32.50
2023-01-11T19:38:59.473Z,31.10
2023-01-11T19:41:59.206Z,31.80
2023-01-11T19:44:34.730Z,30.10
2023-01-11T19:47:12.812Z,31.90
2023-01-11T19:49:42.436Z,32.70
2023-01-11T19:52:13.616Z,35.00
2023-01-11T19:54:43.404Z,33.50
2023-01-11T19:57:18.915Z,29.20
2023-01-11T19:59:49.221Z,26.60
2023-01-11T20:02:21.773Z,25.60
2023-01-11T20:04:50.044Z,24.20
2023-01-11T20:07:18.399Z,22.10
2023-01-11T20:09:47.294Z,25.20
2023-01-11T20:12:16.247Z,24.90
2023-01-11T20:14:49.336Z,24.30
2023-01-11T20:17:21.280Z,22.30
2023-01-11T20:19:54.842Z,25.00
2023-01-11T20:22:25.581Z,26.30
2023-01-11T20:24:53.902Z,26.10
2023-01-11T20:27:22.305Z,26.40
2023-01-11T20:29:50.603Z,23.00
2023-01-11T20:32:39.670Z,23.30
2023-01-11T20:35:07.997Z,23.20
2023-01-11T20:37:36.289Z,22.20
2023-01-11T20:40:05.009Z,21.10
2023-01-11T20:42:35.389Z,18.10
2023-01-11T20:45:04.055Z,27.20
2023-01-11T20:47:35.153Z,30.10
2023-01-11T20:50:03.951Z,34.00
2023-01-11T20:52:32.332Z,36.40
2023-01-11T20:55:00.771Z,37.60
2023-01-11T20:57:36.181Z,35.90
2023-01-11T21:00:05.167Z,37.30
2023-01-11T21:02:33.512Z,34.80
2023-01-11T21:05:05.224Z,32.40
2023-01-11T21:07:34.095Z,27.00
2023-01-11T21:10:27.032Z,27.50
2023-01-11T21:18:06.604Z,28.60
2023-01-11T21:20:50.478Z,43.40
2023-01-11T21:23:18.834Z,33.40
2023-01-11T21:25:47.091Z,32.20
2023-01-11T21:28:15.737Z,33.10
2023-01-11T21:30:43.958Z,32.70
2023-01-11T21:33:13.530Z,32.40
2023-01-11T21:35:42.159Z,32.70
2023-01-11T21:38:10.450Z,31.00
2023-01-11T21:40:38.693Z,28.80
2023-01-11T21:43:10.054Z,31.80
2023-01-11T21:45:38.408Z,31.60
2023-01-11T21:48:06.979Z,31.80
2023-01-11T21:50:35.479Z,29.80
2023-01-11T21:53:08.682Z,25.10
2023-01-11T21:55:41.982Z,25.90
2023-01-11T21:58:11.580Z,26.10
2023-01-11T22:00:40.037Z,31.60
2023-01-11T22:03:11.141Z,33.60
2023-01-11T22:05:39.539Z,31.40
2023-01-11T22:08:12.864Z,33.80
2023-01-11T22:10:44.846Z,33.60
2023-01-11T22:13:22.851Z,33.10
2023-01-11T22:15:53.729Z,31.50
2023-01-11T22:18:25.326Z,31.20
2023-01-11T22:20:55.674Z,28.70
2023-01-11T22:23:26.417Z,29.30
2023-01-11T22:25:55.989Z,28.50
2023-01-11T22:28:24.269Z,29.60
2023-01-11T22:30:54.827Z,30.30
2023-01-11T22:33:26.571Z,29.70
2023-01-11T22:35:55.883Z,30.60
2023-01-11T22:38:24.306Z,30.20
2023-01-11T22:43:24.092Z,29.30
2023-01-11T22:46:00.060Z,29.70
2023-01-11T22:48:29.001Z,27.00
2023-01-11T22:50:58.290Z,26.80
2023-01-11T22:53:26.448Z,26.10
2023-01-11T22:55:54.564Z,26.30
2023-01-11T22:58:22.927Z,24.30
2023-01-11T23:00:51.059Z,24.20
2023-01-11T23:03:19.343Z,24.20
2023-01-11T23:05:47.457Z,23.70
2023-01-11T23:08:16.177Z,24.20
2023-01-11T23:10:44.882Z,22.00
2023-01-11T23:13:31.938Z,24.80
2023-01-11T23:16:00.331Z,22.90
2023-01-11T23:18:28.475Z,23.90
2023-01-11T23:21:02.958Z,22.30
2023-01-11T23:23:31.630Z,22.10
2023-01-11T23:25:59.842Z,22.10
2023-01-11T23:28:30.017Z,24.00
2023-01-11T23:30:58.188Z,23.40
2023-01-11T23:33:26.880Z,22.90
2023-01-11T23:35:59.456Z,23.50
2023-01-11T23:38:27.601Z,22.20
2023-01-11T23:41:14.232Z,23.10
2023-01-11T23:43:42.311Z,22.90
2023-01-11T23:46:30.214Z,23.00
2023-01-11T23:48:58.450Z,22.10
2023-01-11T23:51:26.674Z,20.80
2023-01-11T23:53:54.781Z,21.10
2023-01-11T23:56:24.461Z,20.60
2023-01-11T23:58:52.766Z,20.50
